sensor_id;sensor_type;location;lat;lon;timestamp;P1;durP1;ratioP1;P2;durP2;ratioP2
177;SDS011;77;48.792;9.032;2022-08-19T00:00:12;19.23;;;15.40;;
177;SDS011;77;48.792;9.032;2022-08-19T00:02:37;19.60;;;15.00;;
177;SDS011;77;48.792;9.032;2022-08-19T00:05:03;20.47;;;15.70;;
177;SDS011;77;48.792;9.032;2022-08-19T00:07:28;18.27;;;15.13;;
177;SDS011;77;48.792;9.032;2022-08-19T00:09:54;20.57;;;15.57;;
177;SDS011;77;48.792;9.032;2022-08-19T00:12:19;21.37;;;15.90;;
177;SDS011;77;48.792;9.032;2022-08-19T00:14:45;20.33;;;16.30;;
177;SDS011;77;48.792;9.032;2022-08-19T00:17:11;21.80;;;15.50;;
177;SDS011;77;48.792;9.032;2022-08-19T00:19:36;20.43;;;16.20;;
177;SDS011;77;48.792;9.032;2022-08-19T00:22:02;20.43;;;15.30;;
177;SDS011;77;48.792;9.032;2022-08-19T00:24:27;21.23;;;16.50;;
177;SDS011;77;48.792;9.032;2022-08-19T00:26:53;23.80;;;15.60;;
177;SDS011;77;48.792;9.032;2022-08-19T00:29:19;22.93;;;16.10;;
177;SDS011;77;48.792;9.032;2022-08-19T00:31:44;24.47;;;16.27;;
177;SDS011;77;48.792;9.032;2022-08-19T00:34:12;20.47;;;15.47;;
177;SDS011;77;48.792;9.032;2022-08-19T00:36:37;23.63;;;16.20;;
177;SDS011;77;48.792;9.032;2022-08-19T00:39:03;20.53;;;15.77;;
177;SDS011;77;48.792;9.032;2022-08-19T00:41:28;22.47;;;15.77;;
177;SDS011;77;48.792;9.032;2022-08-19T00:43:58;20.43;;;15.70;;
177;SDS011;77;48.792;9.032;2022-08-19T00:46:23;23.63;;;16.37;;
177;SDS011;77;48.792;9.032;2022-08-19T00:48:48;22.67;;;17.60;;
177;SDS011;77;48.792;9.032;2022-08-19T00:51:15;20.20;;;16.43;;
177;SDS011;77;48.792;9.032;2022-08-19T00:53:40;22.23;;;15.90;;
177;SDS011;77;48.792;9.032;2022-08-19T00:56:06;24.00;;;15.90;;
177;SDS011;77;48.792;9.032;2022-08-19T00:58:32;22.53;;;16.97;;
177;SDS011;77;48.792;9.032;2022-08-19T01:00:58;21.37;;;15.57;;
177;SDS011;77;48.792;9.032;2022-08-19T01:03:23;20.10;;;16.40;;
177;SDS011;77;48.792;9.032;2022-08-19T01:05:49;19.90;;;16.00;;
177;SDS011;77;48.792;9.032;2022-08-19T01:08:17;19.53;;;15.33;;
177;SDS011;77;48.792;9.032;2022-08-19T01:10:44;21.50;;;16.73;;
177;SDS011;77;48.792;9.032;2022-08-19T01:13:11;22.20;;;16.17;;
177;SDS011;77;48.792;9.032;2022-08-19T01:15:38;24.80;;;16.87;;
177;SDS011;77;48.792;9.032;2022-08-19T01:18:07;22.80;;;17.70;;
177;SDS011;77;48.792;9.032;2022-08-19T01:20:35;21.33;;;15.87;;
177;SDS011;77;48.792;9.032;2022-08-19T01:23:02;22.40;;;18.10;;
177;SDS011;77;48.792;9.032;2022-08-19T01:25:29;21.90;;;16.97;;
177;SDS011;77;48.792;9.032;2022-08-19T01:27:56;24.30;;;18.33;;
177;SDS011;77;48.792;9.032;2022-08-19T01:30:24;23.30;;;17.60;;
177;SDS011;77;48.792;9.032;2022-08-19T01:32:50;25.33;;;18.50;;
177;SDS011;77;48.792;9.032;2022-08-19T01:35:15;26.30;;;18.07;;
177;SDS011;77;48.792;9.032;2022-08-19T01:37:41;22.70;;;17.70;;
177;SDS011;77;48.792;9.032;2022-08-19T01:40:09;25.30;;;18.00;;
177;SDS011;77;48.792;9.032;2022-08-19T01:42:35;23.57;;;18.67;;
177;SDS011;77;48.792;9.032;2022-08-19T01:45:00;27.03;;;19.40;;
177;SDS011;77;48.792;9.032;2022-08-19T01:47:25;23.93;;;18.17;;
177;SDS011;77;48.792;9.032;2022-08-19T01:49:50;24.63;;;18.20;;
177;SDS011;77;48.792;9.032;2022-08-19T01:52:16;23.47;;;18.40;;
177;SDS011;77;48.792;9.032;2022-08-19T01:54:43;25.50;;;19.23;;
177;SDS011;77;48.792;9.032;2022-08-19T01:57:10;26.53;;;19.63;;
177;SDS011;77;48.792;9.032;2022-08-19T01:59:36;26.17;;;19.77;;
177;SDS011;77;48.792;9.032;2022-08-19T02:02:02;25.27;;;19.20;;
177;SDS011;77;48.792;9.032;2022-08-19T02:04:28;25.00;;;18.90;;
177;SDS011;77;48.792;9.032;2022-08-19T02:06:53;28.20;;;18.77;;
177;SDS011;77;48.792;9.032;2022-08-19T02:09:18;28.87;;;21.07;;
177;SDS011;77;48.792;9.032;2022-08-19T02:11:46;26.30;;;20.13;;
177;SDS011;77;48.792;9.032;2022-08-19T02:14:12;26.03;;;20.27;;
177;SDS011;77;48.792;9.032;2022-08-19T02:16:38;25.67;;;19.10;;
177;SDS011;77;48.792;9.032;2022-08-19T02:19:03;28.37;;;19.33;;
177;SDS011;77;48.792;9.032;2022-08-19T02:21:29;27.47;;;19.43;;
177;SDS011;77;48.792;9.032;2022-08-19T02:23:56;27.00;;;19.87;;
177;SDS011;77;48.792;9.032;2022-08-19T02:26:22;25.90;;;18.60;;
177;SDS011;77;48.792;9.032;2022-08-19T02:28:47;27.27;;;20.40;;
177;SDS011;77;48.792;9.032;2022-08-19T02:31:16;27.23;;;20.77;;
177;SDS011;77;48.792;9.032;2022-08-19T02:33:41;29.30;;;20.63;;
177;SDS011;77;48.792;9.032;2022-08-19T02:36:07;29.10;;;21.03;;
177;SDS011;77;48.792;9.032;2022-08-19T02:38:33;30.50;;;20.03;;
177;SDS011;77;48.792;9.032;2022-08-19T02:40:59;20.27;;;15.17;;
177;SDS011;77;48.792;9.032;2022-08-19T02:43:25;29.53;;;21.40;;
177;SDS011;77;48.792;9.032;2022-08-19T02:45:50;26.37;;;20.53;;
177;SDS011;77;48.792;9.032;2022-08-19T02:48:18;27.00;;;20.60;;
177;SDS011;77;48.792;9.032;2022-08-19T02:50:43;26.30;;;19.47;;
177;SDS011;77;48.792;9.032;2022-08-19T02:53:09;27.40;;;19.43;;
177;SDS011;77;48.792;9.032;2022-08-19T02:55:34;25.80;;;20.30;;
177;SDS011;77;48.792;9.032;2022-08-19T02:58:00;26.97;;;20.87;;
177;SDS011;77;48.792;9.032;2022-08-19T03:00:25;26.30;;;20.90;;
177;SDS011;77;48.792;9.032;2022-08-19T03:02:50;30.30;;;22.63;;
177;SDS011;77;48.792;9.032;2022-08-19T03:05:17;28.47;;;21.00;;
177;SDS011;77;48.792;9.032;2022-08-19T03:07:42;27.33;;;21.13;;
177;SDS011;77;48.792;9.032;2022-08-19T03:10:08;29.03;;;22.37;;
177;SDS011;77;48.792;9.032;2022-08-19T03:12:34;29.50;;;21.63;;
177;SDS011;77;48.792;9.032;2022-08-19T03:15:00;29.10;;;22.20;;
177;SDS011;77;48.792;9.032;2022-08-19T03:17:25;32.93;;;22.90;;
177;SDS011;77;48.792;9.032;2022-08-19T03:19:50;29.70;;;21.80;;
177;SDS011;77;48.792;9.032;2022-08-19T03:22:17;30.80;;;22.13;;
177;SDS011;77;48.792;9.032;2022-08-19T03:24:42;29.03;;;22.83;;
177;SDS011;77;48.792;9.032;2022-08-19T03:27:08;30.00;;;23.20;;
177;SDS011;77;48.792;9.032;2022-08-19T03:29:33;32.80;;;23.27;;
177;SDS011;77;48.792;9.032;2022-08-19T03:32:02;32.63;;;24.17;;
177;SDS011;77;48.792;9.032;2022-08-19T03:34:29;33.20;;;23.00;;
177;SDS011;77;48.792;9.032;2022-08-19T03:36:54;31.00;;;23.20;;
177;SDS011;77;48.792;9.032;2022-08-19T03:39:22;27.53;;;21.90;;
177;SDS011;77;48.792;9.032;2022-08-19T03:41:48;30.60;;;23.20;;
177;SDS011;77;48.792;9.032;2022-08-19T03:44:13;31.80;;;21.80;;
177;SDS011;77;48.792;9.032;2022-08-19T03:46:38;31.27;;;23.07;;
177;SDS011;77;48.792;9.032;2022-08-19T03:49:04;31.30;;;23.50;;
177;SDS011;77;48.792;9.032;2022-08-19T03:51:30;34.73;;;23.63;;
177;SDS011;77;48.792;9.032;2022-08-19T03:53:56;30.60;;;22.13;;
177;SDS011;77;48.792;9.032;2022-08-19T03:56:23;33.30;;;24.43;;
177;SDS011;77;48.792;9.032;2022-08-19T03:58:49;30.93;;;23.17;;
177;SDS011;77;48.792;9.032;2022-08-19T04:01:16;28.30;;;21.83;;
177;SDS011;77;48.792;9.032;2022-08-19T04:03:41;30.20;;;22.63;;
177;SDS011;77;48.792;9.032;2022-08-19T04:06:10;30.77;;;24.00;;
177;SDS011;77;48.792;9.032;2022-08-19T04:08:36;31.17;;;23.30;;
177;SDS011;77;48.792;9.032;2022-08-19T04:11:05;30.80;;;22.23;;
177;SDS011;77;48.792;9.032;2022-08-19T04:13:32;33.00;;;23.50;;
177;SDS011;77;48.792;9.032;2022-08-19T04:15:57;30.90;;;23.67;;
177;SDS011;77;48.792;9.032;2022-08-19T04:18:22;29.90;;;22.70;;
177;SDS011;77;48.792;9.032;2022-08-19T04:20:47;29.43;;;22.80;;
177;SDS011;77;48.792;9.032;2022-08-19T04:23:13;33.37;;;25.60;;
177;SDS011;77;48.792;9.032;2022-08-19T04:25:39;33.40;;;25.00;;
177;SDS011;77;48.792;9.032;2022-08-19T04:28:04;33.13;;;24.87;;
177;SDS011;77;48.792;9.032;2022-08-19T04:30:31;30.37;;;23.90;;
177;SDS011;77;48.792;9.032;2022-08-19T04:33:01;31.50;;;23.23;;
177;SDS011;77;48.792;9.032;2022-08-19T04:35:26;31.27;;;22.70;;
177;SDS011;77;48.792;9.032;2022-08-19T04:37:52;34.03;;;24.40;;
177;SDS011;77;48.792;9.032;2022-08-19T04:40:17;35.37;;;25.17;;
177;SDS011;77;48.792;9.032;2022-08-19T04:42:42;32.17;;;24.70;;
177;SDS011;77;48.792;9.032;2022-08-19T04:45:09;32.77;;;25.00;;
177;SDS011;77;48.792;9.032;2022-08-19T04:47:36;34.80;;;26.60;;
177;SDS011;77;48.792;9.032;2022-08-19T04:50:01;34.80;;;25.40;;
177;SDS011;77;48.792;9.032;2022-08-19T04:52:26;34.83;;;25.83;;
177;SDS011;77;48.792;9.032;2022-08-19T04:54:52;31.40;;;24.80;;
177;SDS011;77;48.792;9.032;2022-08-19T04:57:17;33.87;;;24.93;;
177;SDS011;77;48.792;9.032;2022-08-19T04:59:42;34.43;;;26.53;;
177;SDS011;77;48.792;9.032;2022-08-19T05:02:08;33.40;;;25.23;;
177;SDS011;77;48.792;9.032;2022-08-19T05:04:35;35.93;;;25.73;;
177;SDS011;77;48.792;9.032;2022-08-19T05:07:01;30.30;;;24.40;;
177;SDS011;77;48.792;9.032;2022-08-19T05:09:26;36.70;;;25.67;;
177;SDS011;77;48.792;9.032;2022-08-19T05:11:51;35.60;;;26.70;;
177;SDS011;77;48.792;9.032;2022-08-19T05:14:17;33.67;;;25.80;;
177;SDS011;77;48.792;9.032;2022-08-19T05:16:42;31.40;;;24.27;;
177;SDS011;77;48.792;9.032;2022-08-19T05:19:07;36.47;;;24.50;;
177;SDS011;77;48.792;9.032;2022-08-19T05:21:34;33.87;;;26.17;;
177;SDS011;77;48.792;9.032;2022-08-19T05:24:00;33.13;;;26.00;;
177;SDS011;77;48.792;9.032;2022-08-19T05:26:25;34.47;;;25.40;;
177;SDS011;77;48.792;9.032;2022-08-19T05:28:51;32.80;;;23.80;;
177;SDS011;77;48.792;9.032;2022-08-19T05:31:16;35.03;;;25.97;;
177;SDS011;77;48.792;9.032;2022-08-19T05:33:41;33.50;;;25.80;;
177;SDS011;77;48.792;9.032;2022-08-19T05:36:07;35.43;;;24.87;;
177;SDS011;77;48.792;9.032;2022-08-19T05:38:33;34.30;;;26.07;;
177;SDS011;77;48.792;9.032;2022-08-19T05:40:59;33.37;;;25.20;;
177;SDS011;77;48.792;9.032;2022-08-19T05:43:24;35.80;;;25.13;;
177;SDS011;77;48.792;9.032;2022-08-19T05:45:49;31.80;;;24.70;;
177;SDS011;77;48.792;9.032;2022-08-19T05:48:18;32.37;;;24.80;;
177;SDS011;77;48.792;9.032;2022-08-19T05:50:46;31.60;;;24.07;;
177;SDS011;77;48.792;9.032;2022-08-19T05:53:11;36.20;;;26.07;;
177;SDS011;77;48.792;9.032;2022-08-19T05:55:38;31.67;;;23.07;;
177;SDS011;77;48.792;9.032;2022-08-19T05:58:06;31.90;;;24.10;;
177;SDS011;77;48.792;9.032;2022-08-19T06:00:32;33.00;;;24.47;;
177;SDS011;77;48.792;9.032;2022-08-19T06:02:57;33.30;;;24.07;;
177;SDS011;77;48.792;9.032;2022-08-19T06:05:22;32.37;;;24.37;;
177;SDS011;77;48.792;9.032;2022-08-19T06:07:47;34.63;;;24.80;;
177;SDS011;77;48.792;9.032;2022-08-19T06:10:13;33.27;;;23.90;;
177;SDS011;77;48.792;9.032;2022-08-19T06:12:40;37.30;;;24.30;;
177;SDS011;77;48.792;9.032;2022-08-19T06:15:06;33.73;;;25.00;;
177;SDS011;77;48.792;9.032;2022-08-19T06:17:32;31.77;;;23.90;;
177;SDS011;77;48.792;9.032;2022-08-19T06:19:58;35.77;;;25.57;;
177;SDS011;77;48.792;9.032;2022-08-19T06:22:23;34.73;;;24.87;;
177;SDS011;77;48.792;9.032;2022-08-19T06:24:49;33.93;;;25.53;;
177;SDS011;77;48.792;9.032;2022-08-19T06:27:14;34.70;;;25.57;;
177;SDS011;77;48.792;9.032;2022-08-19T06:29:41;31.27;;;23.67;;
177;SDS011;77;48.792;9.032;2022-08-19T06:32:06;31.00;;;24.07;;
177;SDS011;77;48.792;9.032;2022-08-19T06:34:32;36.67;;;26.20;;
177;SDS011;77;48.792;9.032;2022-08-19T06:36:59;34.23;;;25.30;;
177;SDS011;77;48.792;9.032;2022-08-19T06:39:25;32.37;;;24.90;;
177;SDS011;77;48.792;9.032;2022-08-19T06:41:53;34.60;;;25.17;;
177;SDS011;77;48.792;9.032;2022-08-19T06:44:20;29.73;;;23.97;;
177;SDS011;77;48.792;9.032;2022-08-19T06:46:47;30.23;;;22.20;;
177;SDS011;77;48.792;9.032;2022-08-19T06:49:12;34.80;;;25.30;;
177;SDS011;77;48.792;9.032;2022-08-19T06:51:38;33.50;;;23.60;;
177;SDS011;77;48.792;9.032;2022-08-19T06:54:03;31.47;;;22.63;;
177;SDS011;77;48.792;9.032;2022-08-19T06:56:29;30.23;;;23.40;;
177;SDS011;77;48.792;9.032;2022-08-19T06:58:54;28.97;;;22.43;;
177;SDS011;77;48.792;9.032;2022-08-19T07:01:19;31.27;;;22.60;;
177;SDS011;77;48.792;9.032;2022-08-19T07:03:46;28.67;;;21.87;;
177;SDS011;77;48.792;9.032;2022-08-19T07:06:13;28.73;;;22.70;;
177;SDS011;77;48.792;9.032;2022-08-19T07:08:40;28.63;;;22.10;;
177;SDS011;77;48.792;9.032;2022-08-19T07:11:05;28.90;;;21.77;;
177;SDS011;77;48.792;9.032;2022-08-19T07:13:31;30.63;;;23.27;;
177;SDS011;77;48.792;9.032;2022-08-19T07:15:58;26.13;;;20.17;;
177;SDS011;77;48.792;9.032;2022-08-19T07:18:23;27.57;;;22.07;;
177;SDS011;77;48.792;9.032;2022-08-19T07:21:01;29.73;;;21.77;;
177;SDS011;77;48.792;9.032;2022-08-19T07:23:26;26.80;;;20.30;;
177;SDS011;77;48.792;9.032;2022-08-19T07:25:52;28.57;;;20.70;;
177;SDS011;77;48.792;9.032;2022-08-19T07:28:17;28.50;;;21.47;;
177;SDS011;77;48.792;9.032;2022-08-19T07:30:43;27.77;;;21.27;;
177;SDS011;77;48.792;9.032;2022-08-19T07:33:10;28.70;;;20.67;;
177;SDS011;77;48.792;9.032;2022-08-19T07:35:35;28.00;;;20.30;;
177;SDS011;77;48.792;9.032;2022-08-19T07:38:02;28.23;;;21.20;;
177;SDS011;77;48.792;9.032;2022-08-19T07:40:28;30.50;;;21.93;;
177;SDS011;77;48.792;9.032;2022-08-19T07:42:55;28.30;;;21.20;;
177;SDS011;77;48.792;9.032;2022-08-19T07:45:22;26.93;;;20.33;;
177;SDS011;77;48.792;9.032;2022-08-19T07:47:47;25.63;;;19.57;;
177;SDS011;77;48.792;9.032;2022-08-19T07:50:13;29.97;;;21.70;;
177;SDS011;77;48.792;9.032;2022-08-19T07:52:38;27.47;;;21.80;;
177;SDS011;77;48.792;9.032;2022-08-19T07:55:09;29.67;;;20.00;;
177;SDS011;77;48.792;9.032;2022-08-19T07:57:34;25.13;;;19.73;;
177;SDS011;77;48.792;9.032;2022-08-19T08:00:00;23.83;;;19.07;;
177;SDS011;77;48.792;9.032;2022-08-19T08:02:25;24.77;;;19.73;;
177;SDS011;77;48.792;9.032;2022-08-19T08:04:51;25.07;;;20.47;;
177;SDS011;77;48.792;9.032;2022-08-19T08:07:16;24.73;;;19.30;;
177;SDS011;77;48.792;9.032;2022-08-19T08:09:42;30.17;;;20.07;;
177;SDS011;77;48.792;9.032;2022-08-19T08:12:10;23.00;;;19.90;;
177;SDS011;77;48.792;9.032;2022-08-19T08:14:39;30.47;;;19.53;;
177;SDS011;77;48.792;9.032;2022-08-19T08:17:05;24.90;;;19.70;;
177;SDS011;77;48.792;9.032;2022-08-19T08:19:31;25.53;;;19.80;;
177;SDS011;77;48.792;9.032;2022-08-19T08:21:57;25.20;;;19.30;;
177;SDS011;77;48.792;9.032;2022-08-19T08:24:22;24.97;;;19.03;;
177;SDS011;77;48.792;9.032;2022-08-19T08:26:48;26.23;;;18.57;;
177;SDS011;77;48.792;9.032;2022-08-19T08:29:14;23.17;;;18.80;;
177;SDS011;77;48.792;9.032;2022-08-19T08:31:40;22.67;;;18.23;;
177;SDS011;77;48.792;9.032;2022-08-19T08:34:06;31.33;;;20.33;;
177;SDS011;77;48.792;9.032;2022-08-19T08:36:31;24.60;;;18.87;;
177;SDS011;77;48.792;9.032;2022-08-19T08:38:57;24.30;;;18.50;;
177;SDS011;77;48.792;9.032;2022-08-19T08:41:24;26.00;;;19.40;;
177;SDS011;77;48.792;9.032;2022-08-19T08:43:53;24.10;;;19.40;;
177;SDS011;77;48.792;9.032;2022-08-19T08:46:22;24.47;;;17.90;;
177;SDS011;77;48.792;9.032;2022-08-19T08:48:49;20.60;;;17.90;;
177;SDS011;77;48.792;9.032;2022-08-19T08:51:17;25.67;;;19.90;;
177;SDS011;77;48.792;9.032;2022-08-19T08:53:43;24.23;;;18.47;;
177;SDS011;77;48.792;9.032;2022-08-19T08:56:09;23.30;;;18.20;;
177;SDS011;77;48.792;9.032;2022-08-19T08:58:39;22.53;;;17.80;;
177;SDS011;77;48.792;9.032;2022-08-19T09:01:11;26.30;;;19.33;;
177;SDS011;77;48.792;9.032;2022-08-19T09:03:38;25.03;;;18.60;;
177;SDS011;77;48.792;9.032;2022-08-19T09:06:06;24.47;;;19.07;;
177;SDS011;77;48.792;9.032;2022-08-19T09:08:39;20.50;;;17.07;;
177;SDS011;77;48.792;9.032;2022-08-19T09:11:06;25.90;;;18.20;;
177;SDS011;77;48.792;9.032;2022-08-19T09:13:34;26.70;;;19.33;;
177;SDS011;77;48.792;9.032;2022-08-19T09:16:02;24.13;;;18.90;;
177;SDS011;77;48.792;9.032;2022-08-19T09:18:39;27.97;;;20.23;;
177;SDS011;77;48.792;9.032;2022-08-19T09:21:08;21.00;;;17.70;;
177;SDS011;77;48.792;9.032;2022-08-19T09:23:37;16.17;;;13.40;;
177;SDS011;77;48.792;9.032;2022-08-19T09:26:06;30.73;;;19.20;;
177;SDS011;77;48.792;9.032;2022-08-19T09:28:31;23.40;;;19.07;;
177;SDS011;77;48.792;9.032;2022-08-19T09:30:57;21.60;;;17.80;;
177;SDS011;77;48.792;9.032;2022-08-19T09:33:22;23.20;;;18.37;;
177;SDS011;77;48.792;9.032;2022-08-19T09:35:50;23.30;;;19.47;;
177;SDS011;77;48.792;9.032;2022-08-19T09:38:25;23.33;;;18.03;;
177;SDS011;77;48.792;9.032;2022-08-19T09:40:51;24.70;;;19.13;;
177;SDS011;77;48.792;9.032;2022-08-19T09:43:16;24.93;;;18.70;;
177;SDS011;77;48.792;9.032;2022-08-19T09:45:44;23.80;;;17.50;;
177;SDS011;77;48.792;9.032;2022-08-19T09:48:09;23.83;;;17.67;;
177;SDS011;77;48.792;9.032;2022-08-19T09:50:34;22.00;;;15.90;;
177;SDS011;77;48.792;9.032;2022-08-19T09:53:04;21.87;;;16.10;;
177;SDS011;77;48.792;9.032;2022-08-19T09:55:29;25.00;;;16.23;;
177;SDS011;77;48.792;9.032;2022-08-19T09:57:55;21.97;;;16.30;;
177;SDS011;77;48.792;9.032;2022-08-19T10:00:20;20.37;;;16.00;;
177;SDS011;77;48.792;9.032;2022-08-19T10:02:45;18.90;;;15.20;;
177;SDS011;77;48.792;9.032;2022-08-19T10:05:10;18.63;;;14.30;;
177;SDS011;77;48.792;9.032;2022-08-19T10:07:36;21.30;;;15.40;;
177;SDS011;77;48.792;9.032;2022-08-19T10:10:03;18.10;;;15.03;;
177;SDS011;77;48.792;9.032;2022-08-19T10:12:28;20.13;;;15.67;;
177;SDS011;77;48.792;9.032;2022-08-19T10:14:53;19.83;;;14.87;;
177;SDS011;77;48.792;9.032;2022-08-19T10:17:19;20.03;;;15.27;;
177;SDS011;77;48.792;9.032;2022-08-19T10:19:44;18.13;;;14.80;;
177;SDS011;77;48.792;9.032;2022-08-19T10:22:09;17.87;;;14.67;;
177;SDS011;77;48.792;9.032;2022-08-19T10:24:34;19.47;;;14.20;;
177;SDS011;77;48.792;9.032;2022-08-19T10:27:01;17.57;;;14.50;;
177;SDS011;77;48.792;9.032;2022-08-19T10:29:27;20.93;;;14.40;;
177;SDS011;77;48.792;9.032;2022-08-19T10:31:52;19.30;;;13.50;;
177;SDS011;77;48.792;9.032;2022-08-19T10:34:17;16.50;;;13.47;;
177;SDS011;77;48.792;9.032;2022-08-19T10:36:42;16.80;;;13.80;;
177;SDS011;77;48.792;9.032;2022-08-19T10:39:08;18.30;;;13.87;;
177;SDS011;77;48.792;9.032;2022-08-19T10:41:35;16.50;;;13.30;;
177;SDS011;77;48.792;9.032;2022-08-19T10:44:06;18.37;;;13.00;;
177;SDS011;77;48.792;9.032;2022-08-19T10:46:31;22.00;;;14.07;;
177;SDS011;77;48.792;9.032;2022-08-19T10:48:57;18.30;;;13.77;;
177;SDS011;77;48.792;9.032;2022-08-19T10:51:23;17.63;;;12.60;;
177;SDS011;77;48.792;9.032;2022-08-19T10:53:48;15.17;;;12.67;;
177;SDS011;77;48.792;9.032;2022-08-19T10:56:13;16.33;;;12.00;;
177;SDS011;77;48.792;9.032;2022-08-19T10:58:39;17.50;;;11.90;;
177;SDS011;77;48.792;9.032;2022-08-19T11:01:05;15.30;;;12.87;;
177;SDS011;77;48.792;9.032;2022-08-19T11:03:31;15.17;;;11.63;;
177;SDS011;77;48.792;9.032;2022-08-19T11:05:59;15.93;;;11.83;;
177;SDS011;77;48.792;9.032;2022-08-19T11:08:25;14.10;;;11.50;;
177;SDS011;77;48.792;9.032;2022-08-19T11:10:51;16.07;;;11.83;;
177;SDS011;77;48.792;9.032;2022-08-19T11:13:16;15.27;;;12.27;;
177;SDS011;77;48.792;9.032;2022-08-19T11:15:42;12.97;;;10.80;;
177;SDS011;77;48.792;9.032;2022-08-19T11:18:09;14.83;;;11.60;;
177;SDS011;77;48.792;9.032;2022-08-19T11:20:34;14.93;;;12.10;;
177;SDS011;77;48.792;9.032;2022-08-19T11:22:59;15.70;;;12.67;;
177;SDS011;77;48.792;9.032;2022-08-19T11:25:24;14.00;;;11.60;;
177;SDS011;77;48.792;9.032;2022-08-19T11:27:50;15.07;;;11.53;;
177;SDS011;77;48.792;9.032;2022-08-19T11:30:15;16.80;;;12.33;;
177;SDS011;77;48.792;9.032;2022-08-19T11:32:41;15.13;;;11.33;;
177;SDS011;77;48.792;9.032;2022-08-19T11:35:08;16.03;;;11.43;;
177;SDS011;77;48.792;9.032;2022-08-19T11:37:34;13.03;;;11.27;;
177;SDS011;77;48.792;9.032;2022-08-19T11:39:59;13.00;;;10.30;;
177;SDS011;77;48.792;9.032;2022-08-19T11:42:24;14.33;;;10.17;;
177;SDS011;77;48.792;9.032;2022-08-19T11:44:50;15.07;;;10.87;;
177;SDS011;77;48.792;9.032;2022-08-19T11:47:15;11.47;;;9.53;;
177;SDS011;77;48.792;9.032;2022-08-19T11:49:40;11.33;;;8.73;;
177;SDS011;77;48.792;9.032;2022-08-19T11:52:08;11.90;;;8.90;;
177;SDS011;77;48.792;9.032;2022-08-19T11:54:33;11.10;;;9.90;;
177;SDS011;77;48.792;9.032;2022-08-19T11:57:02;11.70;;;9.10;;
177;SDS011;77;48.792;9.032;2022-08-19T11:59:27;13.20;;;8.93;;
177;SDS011;77;48.792;9.032;2022-08-19T12:01:52;10.50;;;9.07;;
177;SDS011;77;48.792;9.032;2022-08-19T12:04:23;9.20;;;8.30;;
177;SDS011;77;48.792;9.032;2022-08-19T12:06:51;10.90;;;8.13;;
177;SDS011;77;48.792;9.032;2022-08-19T12:09:17;14.67;;;9.50;;
177;SDS011;77;48.792;9.032;2022-08-19T12:11:43;11.80;;;8.70;;
177;SDS011;77;48.792;9.032;2022-08-19T12:14:09;10.07;;;8.43;;
177;SDS011;77;48.792;9.032;2022-08-19T12:16:35;9.10;;;7.77;;
177;SDS011;77;48.792;9.032;2022-08-19T12:19:01;9.10;;;8.50;;
177;SDS011;77;48.792;9.032;2022-08-19T12:21:27;10.33;;;8.23;;
177;SDS011;77;48.792;9.032;2022-08-19T12:23:52;9.80;;;8.43;;
177;SDS011;77;48.792;9.032;2022-08-19T12:26:19;12.43;;;9.67;;
177;SDS011;77;48.792;9.032;2022-08-19T12:28:44;10.70;;;8.60;;
177;SDS011;77;48.792;9.032;2022-08-19T12:31:10;13.90;;;8.90;;
177;SDS011;77;48.792;9.032;2022-08-19T12:33:37;9.37;;;8.30;;
177;SDS011;77;48.792;9.032;2022-08-19T12:36:03;9.53;;;8.30;;
177;SDS011;77;48.792;9.032;2022-08-19T12:38:29;10.10;;;8.00;;
177;SDS011;77;48.792;9.032;2022-08-19T12:40:55;9.10;;;8.47;;
177;SDS011;77;48.792;9.032;2022-08-19T12:43:22;10.37;;;8.43;;
177;SDS011;77;48.792;9.032;2022-08-19T12:45:47;9.03;;;8.17;;
177;SDS011;77;48.792;9.032;2022-08-19T12:48:13;8.70;;;8.10;;
177;SDS011;77;48.792;9.032;2022-08-19T12:50:39;9.00;;;8.10;;
177;SDS011;77;48.792;9.032;2022-08-19T12:53:04;9.20;;;8.53;;
177;SDS011;77;48.792;9.032;2022-08-19T12:55:29;9.93;;;8.80;;
177;SDS011;77;48.792;9.032;2022-08-19T12:57:55;9.40;;;8.50;;
177;SDS011;77;48.792;9.032;2022-08-19T13:00:22;10.53;;;8.87;;
177;SDS011;77;48.792;9.032;2022-08-19T13:02:49;13.57;;;8.97;;
177;SDS011;77;48.792;9.032;2022-08-19T13:05:15;10.83;;;9.70;;
177;SDS011;77;48.792;9.032;2022-08-19T13:07:41;14.53;;;9.50;;
177;SDS011;77;48.792;9.032;2022-08-19T13:10:07;10.17;;;8.67;;
177;SDS011;77;48.792;9.032;2022-08-19T13:12:33;15.30;;;10.00;;
177;SDS011;77;48.792;9.032;2022-08-19T13:14:59;10.93;;;8.93;;
177;SDS011;77;48.792;9.032;2022-08-19T13:17:28;14.63;;;9.10;;
177;SDS011;77;48.792;9.032;2022-08-19T13:19:53;11.07;;;9.20;;
177;SDS011;77;48.792;9.032;2022-08-19T13:22:19;10.30;;;9.20;;
177;SDS011;77;48.792;9.032;2022-08-19T13:24:44;11.70;;;10.10;;
177;SDS011;77;48.792;9.032;2022-08-19T13:27:09;10.80;;;9.10;;
177;SDS011;77;48.792;9.032;2022-08-19T13:29:35;9.47;;;8.97;;
177;SDS011;77;48.792;9.032;2022-08-19T13:32:00;11.73;;;9.30;;
177;SDS011;77;48.792;9.032;2022-08-19T13:34:28;14.70;;;10.10;;
177;SDS011;77;48.792;9.032;2022-08-19T13:36:54;10.90;;;9.53;;
177;SDS011;77;48.792;9.032;2022-08-19T13:39:19;13.53;;;10.00;;
177;SDS011;77;48.792;9.032;2022-08-19T13:41:45;10.30;;;9.50;;
177;SDS011;77;48.792;9.032;2022-08-19T13:44:12;10.73;;;9.97;;
177;SDS011;77;48.792;9.032;2022-08-19T13:46:40;11.17;;;10.17;;
177;SDS011;77;48.792;9.032;2022-08-19T13:49:05;10.90;;;10.30;;
177;SDS011;77;48.792;9.032;2022-08-19T13:51:32;10.80;;;9.10;;
177;SDS011;77;48.792;9.032;2022-08-19T13:53:57;9.97;;;9.50;;
177;SDS011;77;48.792;9.032;2022-08-19T13:56:22;10.07;;;9.53;;
177;SDS011;77;48.792;9.032;2022-08-19T13:58:48;12.33;;;9.37;;
177;SDS011;77;48.792;9.032;2022-08-19T14:01:18;14.03;;;9.80;;
177;SDS011;77;48.792;9.032;2022-08-19T14:03:43;9.50;;;9.00;;
177;SDS011;77;48.792;9.032;2022-08-19T14:06:08;11.60;;;9.23;;
177;SDS011;77;48.792;9.032;2022-08-19T14:08:36;9.70;;;9.20;;
177;SDS011;77;48.792;9.032;2022-08-19T14:11:02;9.60;;;9.00;;
177;SDS011;77;48.792;9.032;2022-08-19T14:13:27;10.67;;;9.13;;
177;SDS011;77;48.792;9.032;2022-08-19T14:15:52;12.23;;;8.30;;
177;SDS011;77;48.792;9.032;2022-08-19T14:18:20;9.73;;;8.97;;
177;SDS011;77;48.792;9.032;2022-08-19T14:20:46;10.83;;;9.20;;
177;SDS011;77;48.792;9.032;2022-08-19T14:23:11;10.40;;;9.70;;
177;SDS011;77;48.792;9.032;2022-08-19T14:25:40;9.83;;;9.43;;
177;SDS011;77;48.792;9.032;2022-08-19T14:28:05;9.97;;;9.43;;
177;SDS011;77;48.792;9.032;2022-08-19T14:30:47;12.23;;;10.07;;
177;SDS011;77;48.792;9.032;2022-08-19T14:33:12;12.50;;;9.87;;
177;SDS011;77;48.792;9.032;2022-08-19T14:35:37;13.43;;;10.20;;
177;SDS011;77;48.792;9.032;2022-08-19T14:38:03;11.90;;;10.20;;
177;SDS011;77;48.792;9.032;2022-08-19T14:40:29;10.70;;;10.10;;
177;SDS011;77;48.792;9.032;2022-08-19T14:42:55;13.93;;;10.00;;
177;SDS011;77;48.792;9.032;2022-08-19T14:45:20;11.27;;;10.37;;
177;SDS011;77;48.792;9.032;2022-08-19T14:47:47;12.20;;;10.10;;
177;SDS011;77;48.792;9.032;2022-08-19T14:50:14;13.03;;;10.27;;
177;SDS011;77;48.792;9.032;2022-08-19T14:52:39;14.83;;;10.43;;
177;SDS011;77;48.792;9.032;2022-08-19T14:55:05;12.90;;;10.70;;
177;SDS011;77;48.792;9.032;2022-08-19T14:57:31;11.17;;;10.57;;
177;SDS011;77;48.792;9.032;2022-08-19T14:59:56;11.13;;;10.53;;
177;SDS011;77;48.792;9.032;2022-08-19T15:02:21;13.07;;;10.73;;
177;SDS011;77;48.792;9.032;2022-08-19T15:04:48;13.70;;;10.60;;
177;SDS011;77;48.792;9.032;2022-08-19T15:07:13;10.87;;;10.20;;
177;SDS011;77;48.792;9.032;2022-08-19T15:09:38;11.50;;;10.90;;
177;SDS011;77;48.792;9.032;2022-08-19T15:12:04;10.97;;;10.37;;
177;SDS011;77;48.792;9.032;2022-08-19T15:14:29;12.20;;;10.13;;
177;SDS011;77;48.792;9.032;2022-08-19T15:16:54;11.20;;;10.60;;
177;SDS011;77;48.792;9.032;2022-08-19T15:19:19;16.20;;;10.67;;
177;SDS011;77;48.792;9.032;2022-08-19T15:21:47;12.20;;;10.20;;
177;SDS011;77;48.792;9.032;2022-08-19T15:24:13;11.83;;;10.17;;